Time;durP1;ratioP1;P1;durP2;ratioP2;P2;SDS_P1;SDS_P2;PMS_P1;PMS_P2;Temp;Humidity;BMP_temperature;BMP_pressure;BME280_temperature;BME280_humidity;BME280_pressure;Samples;Min_cycle;Max_cycle;Signal;HPM_P1;HPM_P2
2021/12/08 00:00:07;;;;;;;47.83;2.72;;;;;;;;;;5056978;28;20243;-72
2021/12/08 00:02:33;;;;;;;35.25;2.60;;;;;;;;;;5039289;28;20184;-75
2021/12/08 00:04:59;;;;;;;54.17;2.83;;;;;;;;;;5051786;28;20261;-74
2021/12/08 00:07:25;;;;;;;33.53;2.25;;;;;;;;;;5049888;28;20191;-74
2021/12/08 00:10:03;;;;;;;30.58;2.88;;;;;;;;;;5038665;28;20856;-74
2021/12/08 00:15:14;;;;;;;33.50;2.15;;;;;;;;;;5056449;28;20171;-75
2021/12/08 00:17:41;;;;;;;38.85;2.30;;;;;;;;;;5057880;28;20172;-75
2021/12/08 00:20:07;;;;;;;55.72;3.08;;;;;;;;;;5048336;28;20216;-72
2021/12/08 00:22:33;;;;;;;41.83;2.70;;;;;;;;;;5039393;28;20172;-75
2021/12/08 00:24:59;;;;;;;40.90;2.35;;;;;;;;;;5039030;28;20193;-74
2021/12/08 00:27:25;;;;;;;43.30;2.47;;;;;;;;;;5038178;28;20772;-75
2021/12/08 00:29:51;;;;;;;36.38;2.30;;;;;;;;;;5055521;28;20179;-74
2021/12/08 00:32:20;;;;;;;35.90;2.20;;;;;;;;;;5045654;28;20177;-74
2021/12/08 00:34:47;;;;;;;52.33;2.97;;;6.40;38.60;;;;;;5055245;28;20472;-74
2021/12/08 00:37:12;;;;;;;35.95;2.35;;;6.10;40.60;;;;;;5058581;28;20176;-74
2021/12/08 00:39:38;;;;;;;30.30;2.20;;;6.10;42.20;;;;;;5057434;28;20178;-74
2021/12/08 00:42:04;;;;;;;45.80;2.67;;;;;;;;;;5042114;28;20180;-72
2021/12/08 00:44:30;;;;;;;30.10;2.33;;;;;;;;;;5039590;28;20215;-73
2021/12/08 00:46:56;;;;;;;46.07;2.60;;;;;;;;;;5040769;28;20272;-73
2021/12/08 00:49:22;;;;;;;40.00;2.65;;;;;;;;;;5041054;28;20530;-72
2021/12/08 00:51:49;;;;;;;50.08;2.70;;;;;;;;;;5045381;28;20711;-72
2021/12/08 00:54:15;;;;;;;27.52;2.00;;;6.00;41.60;;;;;;5042694;28;20212;-73
2021/12/08 00:56:41;;;;;;;27.37;2.17;;;;;;;;;;5042120;28;20188;-74
2021/12/08 00:59:06;;;;;;;33.38;2.63;;;6.00;41.20;;;;;;5041712;28;20423;-74
2021/12/08 01:01:32;;;;;;;39.77;2.40;;;;;;;;;;5054182;28;20184;-73
2021/12/08 01:03:59;;;;;;;25.75;2.10;;;;;;;;;;5059239;28;20195;-72
2021/12/08 01:06:25;;;;;;;30.20;2.22;;;;;;;;;;5057779;28;20190;-72
2021/12/08 01:08:52;;;;;;;45.30;2.85;;;;;;;;;;5058788;28;20264;-72
2021/12/08 01:11:19;;;;;;;44.40;2.83;;;;;;;;;;5057689;28;20640;-75
2021/12/08 01:13:46;;;;;;;26.52;2.35;;;;;;;;;;5045817;28;20229;-74
2021/12/08 01:16:13;;;;;;;67.70;3.92;;;;;;;;;;5059654;28;20190;-74
2021/12/08 01:18:39;;;;;;;32.47;2.30;;;6.90;43.00;;;;;;5049238;28;20184;-74
2021/12/08 01:21:07;;;;;;;45.40;2.63;;;;;;;;;;5079422;28;20227;-73
2021/12/08 01:23:35;;;;;;;37.90;2.50;;;;;;;;;;5041657;28;20448;-74
2021/12/08 01:26:01;;;;;;;27.02;2.17;;;;;;;;;;5040999;28;20246;-74
2021/12/08 01:28:28;;;;;;;52.17;3.08;;;;;;;;;;5039047;28;20184;-73
2021/12/08 01:30:55;;;;;;;39.45;2.50;;;6.70;46.20;;;;;;5040402;28;20189;-75
2021/12/08 01:33:23;;;;;;;28.77;1.95;;;;;;;;;;5039730;28;20227;-74
2021/12/08 01:35:49;;;;;;;40.80;2.53;;;;;;;;;;5053959;28;20203;-73
2021/12/08 01:38:16;;;;;;;48.25;2.83;;;;;;;;;;5040731;28;20176;-73
2021/12/08 01:40:42;;;;;;;35.33;2.75;;;;;;;;;;5056555;28;20171;-73
2021/12/08 01:43:22;;;;;;;36.33;2.40;;;;;;;;;;5058711;28;20198;-73
2021/12/08 01:45:59;;;;;;;39.05;2.45;;;6.70;53.40;;;;;;5056023;28;20198;-75
2021/12/08 01:48:26;;;;;;;37.78;2.67;;;;;;;;;;5055787;28;20175;-74
2021/12/08 01:50:54;;;;;;;55.53;3.05;;;;;;;;;;5059134;28;20647;-73
2021/12/08 01:53:20;;;;;;;23.27;2.00;;;6.40;57.50;;;;;;5059891;28;20226;-73
2021/12/08 01:55:46;;;;;;;52.28;2.97;;;6.60;59.30;;;;;;5056443;28;20660;-74
2021/12/08 01:58:13;;;;;;;52.63;2.80;;;6.90;58.00;;;;;;5058167;28;20218;-73
2021/12/08 02:00:44;;;;;;;34.60;2.42;;;7.30;56.20;;;;;;5054762;28;20426;-74
2021/12/08 02:03:10;;;;;;;33.05;2.83;;;;;;;;;;5057337;28;20235;-73
2021/12/08 02:05:37;;;;;;;30.52;2.20;;;;;;;;;;5056254;28;20232;-74
2021/12/08 02:08:04;;;;;;;44.22;3.00;;;;;;;;;;5058462;28;20198;-74
2021/12/08 02:10:30;;;;;;;38.05;3.10;;;;;;;;;;5056954;28;20208;-74
2021/12/08 02:12:56;;;;;;;48.58;2.88;;;;;;;;;;5058537;28;20192;-74
2021/12/08 02:15:22;;;;;;;37.78;2.95;;;;;;;;;;5059069;28;20199;-76
2021/12/08 02:17:51;;;;;;;36.55;2.47;;;;;;;;;;5053874;28;20176;-74
2021/12/08 02:20:18;;;;;;;36.80;2.63;;;6.50;53.80;;;;;;5056833;28;20202;-74
2021/12/08 02:22:43;;;;;;;46.30;3.08;;;5.70;55.50;;;;;;5055409;28;20225;-74
2021/12/08 02:25:11;;;;;;;62.00;3.90;;;;;;;;;;5057841;28;20219;-74
2021/12/08 02:27:37;;;;;;;38.30;2.67;;;;;;;;;;5058759;28;20238;-70
2021/12/08 02:30:16;;;;;;;43.08;3.25;;;6.10;56.10;;;;;;5055257;28;20180;-71
2021/12/08 02:48:57;;;;;;;44.80;2.95;;;;;;;;;;5055820;28;20219;-74
2021/12/08 02:51:22;;;;;;;34.92;2.53;;;7.50;46.20;;;;;;5056477;28;20176;-75
2021/12/08 02:53:48;;;;;;;41.33;4.10;;;7.50;46.20;;;;;;5040850;28;20239;-75
2021/12/08 02:56:15;;;;;;;75.10;4.70;;;;;;;;;;5040560;28;20211;-73
2021/12/08 02:58:41;;;;;;;33.65;2.50;;;;;;;;;;5040855;28;20195;-75
2021/12/08 03:01:08;;;;;;;40.00;3.08;;;7.70;44.70;;;;;;5071073;28;20181;-75
2021/12/08 03:03:35;;;;;;;33.58;2.60;;;7.70;44.50;;;;;;5061184;28;20196;-74
2021/12/08 03:06:01;;;;;;;50.28;3.72;;;7.60;45.20;;;;;;5059714;28;20192;-74
2021/12/08 03:08:27;;;;;;;26.98;2.03;;;7.40;46.70;;;;;;5051004;28;20188;-75
2021/12/08 03:10:53;;;;;;;43.85;3.05;;;;;;;;;;5044342;28;20180;-74
2021/12/08 03:13:37;;;;;;;31.42;2.40;;;;;;;;;;5041324;28;20200;-74
2021/12/08 03:16:04;;;;;;;51.28;3.35;;;;;;;;;;5040456;28;20227;-75
2021/12/08 03:18:35;;;;;;;35.65;3.15;;;;;;;;;;5040628;28;20185;-75
2021/12/08 03:21:03;;;;;;;66.90;3.80;;;;;;;;;;5047373;28;20700;-74
2021/12/08 03:23:37;;;;;;;44.03;2.75;;;7.50;46.80;;;;;;5056737;28;20204;-74
2021/12/08 03:26:06;;;;;;;98.68;5.25;;;7.40;48.00;;;;;;5055306;28;20202;-74
2021/12/08 03:28:36;;;;;;;37.58;2.53;;;7.30;48.90;;;;;;5056064;28;20177;-75
2021/12/08 03:33:29;;;;;;;35.75;2.85;;;;;;;;;;5057754;28;20231;-74
2021/12/08 03:35:55;;;;;;;67.20;3.63;;;;;;;;;;5059830;28;20628;-75
2021/12/08 03:38:21;;;;;;;31.48;2.70;;;7.10;49.30;;;;;;5046112;28;20171;-75
2021/12/08 03:40:48;;;;;;;29.80;2.78;;;;;;;;;;5055857;28;20180;-75
2021/12/08 03:43:14;;;;;;;39.75;2.78;;;;;;;;;;5056924;28;20195;-74
2021/12/08 03:45:44;;;;;;;37.28;2.70;;;6.80;50.80;;;;;;5058882;28;20251;-74
2021/12/08 03:48:13;;;;;;;34.28;2.53;;;;;;;;;;5056556;28;20187;-75
2021/12/08 03:50:41;;;;;;;34.35;2.78;;;;;;;;;;5061045;28;20206;-75
2021/12/08 03:53:08;;;;;;;46.22;2.90;;;7.30;49.20;;;;;;5059521;28;20200;-75
2021/12/08 03:55:35;;;;;;;45.58;3.03;;;;;;;;;;5061207;28;20674;-75
2021/12/08 03:58:01;;;;;;;40.35;3.00;;;;;;;;;;5061973;28;20188;-75
2021/12/08 04:00:29;;;;;;;33.88;2.80;;;;;;;;;;5058357;28;20258;-76
2021/12/08 04:02:56;;;;;;;43.13;3.00;;;;;;;;;;5056898;28;20909;-74
2021/12/08 04:05:32;;;;;;;27.23;2.05;;;7.50;49.90;;;;;;5060947;28;20176;-75
2021/12/08 04:08:04;;;;;;;32.15;2.35;;;;;;;;;;5060490;28;20271;-75
2021/12/08 04:10:30;;;;;;;59.45;3.65;;;7.60;50.10;;;;;;5043489;28;20173;-74
2021/12/08 04:12:56;;;;;;;40.83;2.85;;;7.70;50.20;;;;;;5058908;28;20203;-76
2021/12/08 04:15:24;;;;;;;28.65;1.98;;;;;;;;;;5056856;28;20176;-75
2021/12/08 04:17:52;;;;;;;33.20;2.78;;;7.70;51.60;;;;;;5045344;28;20215;-75
2021/12/08 04:20:24;;;;;;;27.63;2.10;;;;;;;;;;5042657;28;20192;-75
2021/12/08 04:22:53;;;;;;;34.42;2.33;;;8.00;51.70;;;;;;5042597;28;20188;-73
2021/12/08 04:25:25;;;;;;;55.72;3.35;;;8.20;51.50;;;;;;5045391;28;20256;-75
2021/12/08 04:27:52;;;;;;;34.35;2.42;;;;;;;;;;5045710;28;20165;-74
2021/12/08 04:30:26;;;;;;;42.47;3.05;;;8.40;51.70;;;;;;5067928;28;20223;-74
2021/12/08 04:32:52;;;;;;;27.98;2.13;;;;;;;;;;5041245;28;20189;-74
2021/12/08 04:35:20;;;;;;;47.03;3.08;;;8.30;51.50;;;;;;5054379;28;20182;-74
2021/12/08 04:37:52;;;;;;;42.80;2.97;;;6.80;55.10;;;;;;5057298;28;20176;-72
2021/12/08 04:40:28;;;;;;;40.88;2.78;;;;;;;;;;5053664;28;20164;-75
2021/12/08 04:43:17;;;;;;;52.17;4.45;;;;;;;;;;5058730;28;20164;-76
2021/12/08 04:46:29;;;;;;;51.75;4.00;;;5.30;66.40;;;;;;5056212;28;20179;-75
2021/12/08 04:49:16;;;;;;;42.20;3.00;;;;;;;;;;5083471;28;20237;-75
2021/12/08 05:00:30;;;;;;;51.13;3.08;;;6.40;58.30;;;;;;5050361;28;20211;-74
2021/12/08 05:06:02;;;;;;;40.85;3.80;;;7.20;54.10;;;;;;5056007;28;20221;-75
2021/12/08 05:08:34;;;;;;;47.13;3.63;;;;;;;;;;5055202;28;20180;-75
2021/12/08 05:11:00;;;;;;;36.15;2.63;;;;;;;;;;5057035;28;20203;-75
2021/12/08 05:13:26;;;;;;;60.10;3.95;;;7.70;52.30;;;;;;5057396;28;20203;-75
2021/12/08 05:15:55;;;;;;;41.53;3.57;;;;;;;;;;5055636;28;20187;-72
2021/12/08 05:18:27;;;;;;;63.70;3.83;;;;;;;;;;5051131;28;20426;-74
2021/12/08 05:21:06;;;;;;;75.18;4.45;;;;;;;;;;5057637;28;20180;-76
2021/12/08 05:24:01;;;;;;;42.13;3.58;;;;;;;;;;5055140;28;20215;-73
2021/12/08 05:26:38;;;;;;;38.50;3.17;;;;;;;;;;4996450;28;20201;-75
2021/12/08 05:29:16;;;;;;;54.85;3.45;;;;;;;;;;4979447;28;20589;-73
2021/12/08 05:31:42;;;;;;;30.52;2.88;;;;;;;;;;4995509;28;20268;-76
2021/12/08 05:34:08;;;;;;;30.85;2.60;;;;;;;;;;4994754;28;20214;-76
2021/12/08 05:36:34;;;;;;;32.22;2.65;;;8.20;50.60;;;;;;4991705;28;20195;-74
2021/12/08 05:39:02;;;;;;;32.67;2.50;;;;;;;;;;4978034;28;20191;-75
2021/12/08 05:41:30;;;;;;;33.50;2.58;;;;;;;;;;4990172;28;20182;-74
2021/12/08 05:43:56;;;;;;;30.45;4.57;;;;;;;;;;4995380;28;20237;-74
2021/12/08 05:46:25;;;;;;;37.65;3.28;;;8.00;50.90;;;;;;4996236;28;20185;-74
2021/12/08 05:48:51;;;;;;;35.42;2.80;;;8.00;50.80;;;;;;4989259;28;20179;-75
2021/12/08 05:51:28;;;;;;;33.20;2.90;;;;;;;;;;4989967;28;20187;-76
2021/12/08 05:53:57;;;;;;;37.38;2.85;;;7.80;51.70;;;;;;4961041;28;20578;-76
2021/12/08 05:56:23;;;;;;;41.17;3.33;;;;;;;;;;4977588;28;20202;-76
2021/12/08 05:58:52;;;;;;;33.17;2.33;;;7.40;54.10;;;;;;4971668;28;20258;-76
2021/12/08 06:01:23;;;;;;;58.53;3.15;;;7.00;56.60;;;;;;4976876;28;20257;-76
2021/12/08 06:03:50;;;;;;;33.03;2.65;;;6.60;59.70;;;;;;5042218;28;20207;-73
2021/12/08 06:06:18;;;;;;;45.75;3.55;;;6.50;60.80;;;;;;5057431;28;20180;-74
2021/12/08 06:08:44;;;;;;;42.70;2.63;;;;;;;;;;5055236;28;20682;-75
2021/12/08 06:11:12;;;;;;;50.38;3.53;;;;;;;;;;5042911;28;20186;-75
2021/12/08 06:13:39;;;;;;;35.90;2.42;;;;;;;;;;5045080;28;20580;-75
2021/12/08 06:16:06;;;;;;;106.95;5.13;;;;;;;;;;5046399;28;20176;-73
2021/12/08 06:18:38;;;;;;;33.72;2.38;;;6.70;58.10;;;;;;5056060;28;20198;-75
2021/12/08 06:21:05;;;;;;;35.03;2.47;;;;;;;;;;5055299;28;20173;-74
2021/12/08 06:23:33;;;;;;;25.48;2.38;;;6.70;59.10;;;;;;5046057;28;20729;-73
2021/12/08 06:26:00;;;;;;;29.23;3.15;;;;;;;;;;5056012;28;20175;-74
2021/12/08 06:28:26;;;;;;;37.80;3.13;;;7.60;52.30;;;;;;5056898;28;20176;-75
2021/12/08 06:30:53;;;;;;;53.90;3.22;;;7.40;54.30;;;;;;5054823;28;20211;-75
2021/12/08 06:33:20;;;;;;;49.38;2.90;;;;;;;;;;5054897;28;20250;-75
2021/12/08 06:35:55;;;;;;;59.13;3.50;;;;;;;;;;5053087;28;20563;-74
2021/12/08 06:38:21;;;;;;;39.53;2.60;;;;;;;;;;5035810;28;20168;-74
2021/12/08 06:41:00;;;;;;;54.58;2.83;;;;;;;;;;5042208;28;20211;-75
2021/12/08 06:43:28;;;;;;;49.80;3.13;;;;;;;;;;5055291;28;20218;-74
2021/12/08 06:45:58;;;;;;;44.95;2.60;;;7.60;57.10;;;;;;5052541;28;20271;-74
2021/12/08 06:48:28;;;;;;;42.40;2.63;;;7.80;56.20;;;;;;5034074;28;20180;-73
2021/12/08 06:50:56;;;;;;;49.42;2.70;;;;;;;;;;5036734;28;20239;-74
2021/12/08 06:53:23;;;;;;;38.13;2.33;;;;;;;;;;5035781;28;20207;-73
2021/12/08 06:55:54;;;;;;;88.40;3.78;;;;;;;;;;5044523;28;20183;-76
2021/12/08 06:58:22;;;;;;;45.67;2.80;;;;;;;;;;5037129;28;20203;-74
2021/12/08 07:03:43;;;;;;;73.18;4.07;;;7.70;61.60;;;;;;5037925;28;20306;-75
2021/12/08 07:06:40;;;;;;;92.18;4.72;;;;;;;;;;5043458;28;20160;-75
2021/12/08 07:09:04;;;;;;;29.40;2.13;;;;;;;;;;5055288;28;20243;-74
2021/12/08 07:11:30;;;;;;;37.03;2.33;;;;;;;;;;5044568;28;20215;-75
2021/12/08 07:13:56;;;;;;;43.65;2.88;;;;;;;;;;5065855;28;20213;-75
2021/12/08 07:16:25;;;;;;;82.55;3.90;;;;;;;;;;5036363;28;20179;-76
2021/12/08 07:19:03;;;;;;;44.63;2.67;;;8.10;58.50;;;;;;5044696;28;20242;-73
2021/12/08 07:21:35;;;;;;;30.60;2.13;;;;;;;;;;5049685;28;20184;-74
2021/12/08 07:24:07;;;;;;;35.70;2.53;;;;;;;;;;5034779;28;20203;-75
2021/12/08 07:26:34;;;;;;;42.40;2.75;;;;;;;;;;5040933;28;20273;-72
2021/12/08 07:29:01;;;;;;;25.30;2.38;;;;;;;;;;5058735;28;20172;-75
2021/12/08 07:31:40;;;;;;;30.02;2.50;;;8.50;55.50;;;;;;5049454;28;20204;-75
2021/12/08 07:34:08;;;;;;;23.80;2.33;;;;;;;;;;5038388;28;20259;-75
2021/12/08 07:36:39;;;;;;;32.25;2.20;;;8.50;55.20;;;;;;5039688;28;20173;-75
2021/12/08 07:39:07;;;;;;;36.17;2.38;;;;;;;;;;5052900;28;20179;-75
2021/12/08 07:41:38;;;;;;;29.65;2.05;;;8.50;55.10;;;;;;5056321;28;20231;-75
2021/12/08 07:44:10;;;;;;;27.73;2.75;;;8.50;55.50;;;;;;5058144;28;20717;-75
2021/12/08 07:46:43;;;;;;;66.95;3.45;;;8.00;58.70;;;;;;5042521;28;20185;-75
2021/12/08 07:49:14;;;;;;;60.22;2.97;;;7.40;62.20;;;;;;5065935;28;20207;-73
2021/12/08 07:51:52;;;;;;;26.80;2.10;;;;;;;;;;5049773;28;20172;-73
2021/12/08 07:54:20;;;;;;;33.97;2.35;;;7.40;64.40;;;;;;5039624;28;20267;-73
2021/12/08 07:56:48;;;;;;;46.33;2.92;;;;;;;;;;5040651;28;20177;-75
2021/12/08 07:59:16;;;;;;;34.53;2.58;;;;;;;;;;5052986;28;20172;-75
2021/12/08 08:01:45;;;;;;;21.65;2.30;;;;;;;;;;5055615;28;20222;-75
2021/12/08 08:04:16;;;;;;;38.03;2.40;;;8.10;58.50;;;;;;5058202;28;20267;-75
2021/12/08 08:06:43;;;;;;;53.47;3.72;;;;;;;;;;5055701;28;20177;-75
2021/12/08 08:09:16;;;;;;;17.77;1.73;;;8.00;59.10;;;;;;5051897;28;20185;-74
2021/12/08 08:11:45;;;;;;;28.55;2.20;;;8.00;59.10;;;;;;5053355;28;20180;-75
2021/12/08 08:14:14;;;;;;;30.00;2.22;;;;;;;;;;5051230;28;20215;-74
2021/12/08 08:16:43;;;;;;;18.23;1.75;;;7.90;60.20;;;;;;5046890;28;20208;-72
2021/12/08 08:19:13;;;;;;;60.55;3.13;;;8.40;58.00;;;;;;5057976;28;20664;-72
2021/12/08 08:21:49;;;;;;;59.78;3.05;;;;;;;;;;5044549;28;20176;-75
2021/12/08 08:24:18;;;;;;;23.88;1.90;;;8.80;52.60;;;;;;5039557;28;20280;-75
2021/12/08 08:26:45;;;;;;;36.25;2.55;;;;;;;;;;5046044;28;20184;-75
2021/12/08 08:29:12;;;;;;;38.05;2.30;;;8.70;51.70;;;;;;5055095;28;20188;-74
2021/12/08 08:31:55;;;;;;;33.08;2.30;;;8.70;51.90;;;;;;5044791;28;20214;-81
2021/12/08 08:34:21;;;;;;;34.17;2.42;;;;;;;;;;5049887;28;20363;-80
2021/12/08 08:36:48;;;;;;;31.73;2.22;;;9.00;51.30;;;;;;5059437;28;20256;-80
2021/12/08 08:39:22;;;;;;;27.05;2.55;;;8.70;53.20;;;;;;5055328;28;20176;-82
2021/12/08 08:41:50;;;;;;;29.40;2.17;;;;;;;;;;5046362;28;20262;-77
2021/12/08 08:44:31;;;;;;;35.05;2.45;;;;;;;;;;5041256;28;20855;-77
2021/12/08 08:47:00;;;;;;;40.92;2.70;;;8.80;53.50;;;;;;5050339;28;20179;-76
2021/12/08 08:49:29;;;;;;;40.40;2.80;;;;;;;;;;5051645;28;20582;-77
2021/12/08 08:52:02;;;;;;;34.90;2.35;;;;;;;;;;5037305;28;20180;-74
2021/12/08 08:54:33;;;;;;;21.85;2.30;;;;;;;;;;5067977;28;20268;-81
2021/12/08 08:57:19;;;;;;;35.53;2.60;;;8.40;57.90;;;;;;5076167;28;20187;-78
2021/12/08 08:59:50;;;;;;;40.92;2.50;;;8.80;56.30;;;;;;5047322;28;20164;-76
2021/12/08 09:02:25;;;;;;;108.53;4.93;;;9.20;53.60;;;;;;5058669;28;20247;-79
2021/12/08 09:04:55;;;;;;;39.95;2.55;;;;;;;;;;5058038;28;20202;-77
2021/12/08 09:07:23;;;;;;;58.30;3.20;;;;;;;;;;5050415;28;20231;-78
2021/12/08 09:09:52;;;;;;;46.67;2.63;;;9.50;49.50;;;;;;5041346;28;20195;-77
2021/12/08 09:12:20;;;;;;;44.58;2.92;;;9.30;50.10;;;;;;5049915;28;20683;-75
2021/12/08 09:14:58;;;;;;;59.00;3.20;;;8.80;53.20;;;;;;5035330;28;20204;-76
2021/12/08 09:17:32;;;;;;;53.90;2.90;;;;;;;;;;5035181;28;20176;-76
2021/12/08 09:20:00;;;;;;;44.28;2.60;;;;;;;;;;5033540;28;20248;-75
2021/12/08 09:22:32;;;;;;;34.95;2.80;;;;;;;;;;5049156;28;20273;-75
2021/12/08 09:25:33;;;;;;;46.30;2.78;;;9.40;51.40;;;;;;5049244;28;20196;-76
2021/12/08 09:28:02;;;;;;;34.13;2.58;;;;;;;;;;4997735;28;22076;-76
2021/12/08 09:30:42;;;;;;;38.88;2.72;;;9.10;52.00;;;;;;4995251;28;20182;-77
2021/12/08 09:33:17;;;;;;;22.80;1.92;;;9.20;51.80;;;;;;5012534;28;20648;-77
2021/12/08 09:35:48;;;;;;;47.58;3.50;;;9.30;52.30;;;;;;4986016;28;20181;-77
2021/12/08 09:38:16;;;;;;;39.08;2.40;;;;;;;;;;4993589;28;20185;-77
2021/12/08 09:40:47;;;;;;;45.17;2.47;;;;;;;;;;5004323;28;20765;-76
2021/12/08 09:43:37;;;;;;;24.98;2.15;;;9.70;51.10;;;;;;5011466;28;20205;-75
2021/12/08 09:46:13;;;;;;;42.00;2.55;;;9.70;50.80;;;;;;5009860;28;20203;-76
2021/12/08 09:48:40;;;;;;;29.77;1.95;;;;;;;;;;5010400;28;20196;-76
2021/12/08 09:51:06;;;;;;;45.92;3.60;;;9.50;51.90;;;;;;4996652;28;20942;-77
2021/12/08 09:53:34;;;;;;;51.90;2.70;;;9.50;52.20;;;;;;4997510;28;20253;-78
2021/12/08 09:56:00;;;;;;;71.05;4.00;;;;;;;;;;5007297;28;20201;-78
2021/12/08 09:58:26;;;;;;;19.33;1.98;;;;;;;;;;4998984;28;20184;-78
2021/12/08 10:00:55;;;;;;;43.13;2.70;;;;;;;;;;5008142;28;20190;-77
2021/12/08 10:03:22;;;;;;;31.08;2.42;;;;;;;;;;5000282;28;20794;-78
2021/12/08 10:05:48;;;;;;;59.33;3.10;;;;;;;;;;5037672;28;20314;-78
2021/12/08 10:08:14;;;;;;;51.30;3.20;;;;;;;;;;5040587;28;20176;-77
2021/12/08 10:10:41;;;;;;;31.90;2.47;;;;;;;;;;5046236;28;20259;-77
2021/12/08 10:13:07;;;;;;;62.38;3.33;;;;;;;;;;5039338;28;20180;-78
2021/12/08 10:15:34;;;;;;;41.85;2.58;;;;;;;;;;5057893;28;20222;-78
2021/12/08 10:18:00;;;;;;;50.65;4.05;;;;;;;;;;5057122;28;20262;-77
2021/12/08 10:20:51;;;;;;;35.20;2.47;;;9.50;53.40;;;;;;5047956;28;20425;-78
2021/12/08 10:23:27;;;;;;;15.00;1.80;;;9.70;52.70;;;;;;5037442;28;20192;-78
2021/12/08 10:25:55;;;;;;;41.13;2.92;;;;;;;;;;5067855;28;20184;-77
2021/12/08 10:28:44;;;;;;;57.60;3.67;;;;;;;;;;5047699;28;20234;-77
2021/12/08 10:31:12;;;;;;;34.70;2.63;;;;;;;;;;5051280;28;20591;-77
2021/12/08 10:33:59;;;;;;;60.78;3.38;;;;;;;;;;5052282;28;20265;-77
2021/12/08 10:36:46;;;;;;;47.30;2.95;;;;;;;;;;5052268;28;20164;-76
2021/12/08 10:39:31;;;;;;;21.83;1.92;;;;;;;;;;5036698;28;20562;-76
2021/12/08 10:41:59;;;;;;;43.85;2.78;;;9.50;52.50;;;;;;5037556;28;20645;-76
2021/12/08 10:44:35;;;;;;;33.38;2.45;;;;;;;;;;5048345;28;20243;-75
2021/12/08 10:47:02;;;;;;;37.20;2.72;;;;;;;;;;5052981;28;20169;-76
2021/12/08 10:54:43;;;;;;;44.55;2.70;;;;;;;;;;5039447;28;20299;-74
2021/12/08 10:57:30;;;;;;;27.05;2.20;;;;;;;;;;5032160;28;20243;-76
2021/12/08 11:00:04;;;;;;;40.90;2.42;;;9.20;53.70;;;;;;5034140;28;20283;-78
2021/12/08 11:02:54;;;;;;;33.22;2.53;;;9.50;52.30;;;;;;5032645;28;20733;-76
2021/12/08 11:05:29;;;;;;;51.08;3.22;;;;;;;;;;5035554;28;20154;-77
2021/12/08 11:08:16;;;;;;;43.03;2.78;;;;;;;;;;5052347;28;20174;-77
2021/12/08 11:10:50;;;;;;;47.67;3.67;;;9.60;50.90;;;;;;5033858;28;20176;-77
2021/12/08 11:13:17;;;;;;;26.85;2.15;;;;;;;;;;5039538;28;20219;-76
2021/12/08 11:15:44;;;;;;;51.88;3.20;;;7.90;62.60;;;;;;5043815;28;20647;-77
2021/12/08 11:18:10;;;;;;;60.50;3.53;;;;;;;;;;5046511;28;20192;-76
2021/12/08 11:21:14;;;;;;;64.60;4.67;;;;;;;;;;5031876;28;20551;-76
2021/12/08 11:23:42;;;;;;;42.40;4.10;;;;;;;;;;5020954;28;20449;-76
2021/12/08 11:26:35;;;;;;;72.60;4.03;;;8.70;60.60;;;;;;5055771;28;20202;-77
2021/12/08 11:29:06;;;;;;;40.60;4.20;;;;;;;;;;5041911;28;20687;-77
2021/12/08 11:31:35;;;;;;;36.90;2.88;;;;;;;;;;5036322;28;20184;-77
2021/12/08 11:34:05;;;;;;;84.20;4.00;;;;;;;;;;5034912;28;20204;-77
2021/12/08 11:36:36;;;;;;;77.47;3.85;;;8.30;61.10;;;;;;5033323;28;20179;-78
2021/12/08 11:39:30;;;;;;;42.70;3.33;;;8.50;59.10;;;;;;5051888;28;20183;-78
2021/12/08 11:41:59;;;;;;;74.15;4.40;;;;;;;;;;5046705;28;20180;-76
2021/12/08 11:44:26;;;;;;;54.15;3.83;;;;;;;;;;5055682;28;20283;-78
2021/12/08 11:46:58;;;;;;;38.65;3.17;;;8.80;56.20;;;;;;5055811;28;20180;-78
2021/12/08 11:49:25;;;;;;;41.20;3.72;;;;;;;;;;5054416;28;20195;-77
2021/12/08 11:51:53;;;;;;;47.80;3.05;;;;;;;;;;5053619;28;20180;-76
2021/12/08 11:54:30;;;;;;;40.83;3.30;;;;;;;;;;5053527;28;20207;-77
2021/12/08 11:57:00;;;;;;;44.83;3.33;;;;;;;;;;5064296;28;20179;-77
2021/12/08 11:59:27;;;;;;;44.00;4.65;;;;;;;;;;5060835;28;20169;-78
2021/12/08 12:01:53;;;;;;;95.82;5.20;;;;;;;;;;5062256;28;20176;-78
2021/12/08 12:04:19;;;;;;;40.85;3.90;;;;;;;;;;5064866;28;20208;-75
2021/12/08 12:06:45;;;;;;;35.85;2.95;;;;;;;;;;5064476;28;20191;-76
2021/12/08 12:09:11;;;;;;;46.70;3.80;;;;;;;;;;5053293;28;20178;-76
2021/12/08 12:11:37;;;;;;;44.80;2.83;;;;;;;;;;5047869;28;20212;-77
2021/12/08 12:14:04;;;;;;;52.65;3.20;;;;;;;;;;5049643;28;20204;-76
2021/12/08 12:16:30;;;;;;;31.35;3.42;;;7.80;63.90;;;;;;5055100;28;20203;-77
2021/12/08 12:19:01;;;;;;;65.18;3.95;;;;;;;;;;5050254;28;20227;-77
2021/12/08 12:22:02;;;;;;;49.47;3.47;;;8.80;57.60;;;;;;5054145;28;20172;-77
2021/12/08 12:24:33;;;;;;;40.78;2.95;;;8.80;57.30;;;;;;5045202;28;20212;-76
2021/12/08 12:27:23;;;;;;;47.47;3.85;;;8.70;56.90;;;;;;5037042;28;20231;-78
2021/12/08 12:30:12;;;;;;;51.10;2.90;;;;;;;;;;5039340;28;20246;-77
2021/12/08 12:32:46;;;;;;;55.47;3.15;;;;;;;;;;5053871;28;20245;-77
2021/12/08 12:35:14;;;;;;;33.08;2.70;;;;;;;;;;5055265;28;20569;-77
2021/12/08 12:37:41;;;;;;;40.65;2.92;;;;;;;;;;5040216;28;20185;-76
2021/12/08 12:40:09;;;;;;;49.25;2.92;;;;;;;;;;5054652;28;20525;-77
2021/12/08 12:42:55;;;;;;;41.85;3.17;;;;;;;;;;5051447;28;20180;-77
2021/12/08 12:45:22;;;;;;;51.30;3.08;;;;;;;;;;5052760;28;20184;-77
2021/12/08 12:48:10;;;;;;;36.80;2.42;;;;;;;;;;5053409;28;20582;-76
2021/12/08 12:50:57;;;;;;;36.33;2.88;;;;;;;;;;5053954;28;20168;-78
2021/12/08 12:53:41;;;;;;;39.08;2.90;;;9.20;54.40;;;;;;5038077;28;20212;-75
2021/12/08 12:56:08;;;;;;;51.08;3.03;;;;;;;;;;5033457;28;20283;-76
2021/12/08 12:58:40;;;;;;;36.30;2.50;;;;;;;;;;5033438;28;20655;-77
2021/12/08 13:01:09;;;;;;;31.98;2.53;;;9.10;55.00;;;;;;5037220;28;20183;-77
2021/12/08 13:03:41;;;;;;;57.67;3.65;;;;;;;;;;5041042;28;20632;-76
2021/12/08 13:06:09;;;;;;;72.65;4.35;;;8.90;55.70;;;;;;5042297;28;20682;-76
2021/12/08 13:08:37;;;;;;;34.70;2.88;;;;;;;;;;5035725;28;20188;-77
2021/12/08 13:11:25;;;;;;;41.08;3.00;;;8.60;58.10;;;;;;5033783;28;20172;-78
2021/12/08 13:13:54;;;;;;;49.45;3.45;;;;;;;;;;5043717;28;20221;-78
2021/12/08 13:16:28;;;;;;;40.75;2.50;;;;;;;;;;5053627;28;20168;-77
2021/12/08 13:19:05;;;;;;;37.95;2.80;;;;;;;;;;5053651;28;20654;-75
2021/12/08 13:21:52;;;;;;;28.15;2.58;;;;;;;;;;5052305;28;20183;-77
2021/12/08 13:24:33;;;;;;;39.67;3.08;;;9.00;55.90;;;;;;5050805;28;20191;-77
2021/12/08 13:27:08;;;;;;;44.80;3.17;;;9.30;53.90;;;;;;5052036;28;20183;-77
2021/12/08 13:29:36;;;;;;;41.53;3.45;;;;;;;;;;5040454;28;20537;-76
2021/12/08 13:32:13;;;;;;;49.42;2.85;;;9.40;52.70;;;;;;5050013;28;20647;-77
2021/12/08 13:34:59;;;;;;;37.15;2.50;;;9.40;53.10;;;;;;5049599;28;20215;-78
2021/12/08 13:37:29;;;;;;;44.00;4.15;;;9.40;53.50;;;;;;5033949;28;20211;-77
2021/12/08 13:40:02;;;;;;;48.25;2.53;;;;;;;;;;5047012;28;20691;-75
2021/12/08 13:42:29;;;;;;;267.65;10.18;;;;;;;;;;5051546;28;20267;-74
2021/12/08 13:44:55;;;;;;;48.05;3.58;;;;;;;;;;5044093;28;20219;-78
2021/12/08 13:47:38;;;;;;;45.50;2.97;;;;;;;;;;5055382;28;20203;-78
2021/12/08 13:50:13;;;;;;;41.42;2.72;;;8.60;58.90;;;;;;5042667;28;20196;-79
2021/12/08 13:53:09;;;;;;;33.63;2.58;;;8.60;59.80;;;;;;5051435;28;20164;-76
2021/12/08 13:55:38;;;;;;;52.03;3.88;;;;;;;;;;5050447;28;20196;-76
2021/12/08 13:58:05;;;;;;;48.30;3.95;;;;;;;;;;5049473;28;20212;-76
2021/12/08 14:00:32;;;;;;;33.05;2.30;;;;;;;;;;5051140;28;20180;-76
2021/12/08 14:03:09;;;;;;;55.60;3.13;;;;;;;;;;5041415;28;20185;-76
2021/12/08 14:05:47;;;;;;;43.20;2.88;;;9.60;54.50;;;;;;5033199;28;20188;-76
2021/12/08 14:08:15;;;;;;;36.13;2.35;;;9.20;54.20;;;;;;5041642;28;20658;-76
2021/12/08 14:10:43;;;;;;;45.35;3.00;;;;;;;;;;5052241;28;20225;-77
2021/12/08 14:13:13;;;;;;;65.25;4.10;;;;;;;;;;5050187;28;20181;-77
2021/12/08 14:15:44;;;;;;;69.63;4.05;;;;;;;;;;5036181;28;20687;-77
2021/12/08 14:18:25;;;;;;;49.20;3.38;;;;;;;;;;5049320;28;20658;-77
2021/12/08 14:20:53;;;;;;;45.17;4.38;;;;;;;;;;5032197;28;20249;-77
2021/12/08 14:23:22;;;;;;;28.85;3.05;;;8.80;58.50;;;;;;5039501;28;20228;-78
2021/12/08 14:25:53;;;;;;;33.20;2.80;;;;;;;;;;5042906;28;20246;-76
2021/12/08 14:28:46;;;;;;;48.03;3.30;;;9.00;56.10;;;;;;5031936;28;20191;-77
2021/12/08 14:31:35;;;;;;;43.60;2.70;;;8.80;58.80;;;;;;5034336;28;20287;-77
2021/12/08 14:34:06;;;;;;;52.58;4.40;;;;;;;;;;5046904;28;20213;-78
2021/12/08 14:36:32;;;;;;;40.03;2.55;;;8.90;57.40;;;;;;5031715;28;20188;-76
2021/12/08 14:38:59;;;;;;;53.17;3.60;;;;;;;;;;5036279;28;20180;-77
2021/12/08 14:41:31;;;;;;;42.80;2.90;;;8.80;57.60;;;;;;5053703;28;20251;-77
2021/12/08 14:44:15;;;;;;;68.68;4.63;;;8.80;57.50;;;;;;5050093;28;20667;-77
2021/12/08 14:46:42;;;;;;;22.15;2.15;;;;;;;;;;5038048;28;20191;-76
2021/12/08 14:49:10;;;;;;;40.95;2.92;;;;;;;;;;5048562;28;20196;-77
2021/12/08 14:51:37;;;;;;;33.95;3.10;;;8.50;58.90;;;;;;5039506;28;20185;-76